Time;durP1;ratioP1;P1;durP2;ratioP2;P2;SDS_P1;SDS_P2;PMS_P1;PMS_P2;Temp;Humidity;BMP_temperature;BMP_pressure;BME280_temperature;BME280_humidity;BME280_pressure;Samples;Min_cycle;Max_cycle;Signal;HPM_P1;HPM_P2
2023/06/08 00:02:17;;;;;;;7.93;2.53;;;12.70;99.90;;;;;;5025646;28;20128;-70
2023/06/08 00:04:44;;;;;;;5.32;3.00;;;12.70;99.90;;;;;;5026718;28;20180;-70
2023/06/08 00:07:14;;;;;;;5.70;3.17;;;12.60;99.90;;;;;;5026932;28;20038;-70
2023/06/08 00:09:40;;;;;;;8.50;2.72;;;12.60;99.90;;;;;;5026682;28;20044;-70
2023/06/08 00:12:06;;;;;;;9.20;3.65;;;12.60;99.90;;;;;;5041852;28;20057;-70
2023/06/08 00:14:34;;;;;;;7.47;2.55;;;12.70;99.90;;;;;;5026089;28;20179;-70
2023/06/08 00:17:03;;;;;;;9.20;3.20;;;12.60;99.90;;;;;;5025821;28;20041;-70
2023/06/08 00:19:30;;;;;;;5.93;3.30;;;12.60;99.90;;;;;;5025759;28;20076;-70
2023/06/08 00:21:56;;;;;;;5.55;2.78;;;12.60;99.90;;;;;;5026275;28;20221;-70
2023/06/08 00:24:22;;;;;;;4.97;2.60;;;12.60;99.90;;;;;;5025878;28;20092;-70
2023/06/08 00:26:48;;;;;;;7.53;2.88;;;12.60;99.90;;;;;;5026527;28;20069;-70
2023/06/08 00:29:13;;;;;;;6.57;3.15;;;12.70;99.90;;;;;;5025871;28;20087;-70
2023/06/08 00:31:39;;;;;;;5.22;2.42;;;12.60;99.90;;;;;;5026484;28;20595;-70
2023/06/08 00:34:05;;;;;;;7.03;2.90;;;12.70;99.90;;;;;;5025144;28;20433;-70
2023/06/08 00:36:30;;;;;;;9.85;2.53;;;12.60;99.90;;;;;;5024316;28;20469;-70
2023/06/08 00:38:56;;;;;;;4.35;2.75;;;12.70;99.90;;;;;;5025538;28;20041;-70
2023/06/08 00:41:21;;;;;;;6.40;2.92;;;12.70;99.90;;;;;;5024488;28;20103;-70
2023/06/08 00:43:47;;;;;;;6.35;2.95;;;12.60;99.90;;;;;;5025889;28;20053;-70
2023/06/08 00:46:18;;;;;;;5.93;2.42;;;12.60;99.90;;;;;;5024651;28;20069;-70
2023/06/08 00:48:44;;;;;;;5.40;3.45;;;12.50;99.90;;;;;;5023601;28;20049;-69
2023/06/08 00:51:11;;;;;;;10.88;3.00;;;12.50;99.90;;;;;;5026622;28;20041;-70
2023/06/08 00:53:37;;;;;;;6.25;2.33;;;12.60;99.90;;;;;;5025882;28;20099;-70
2023/06/08 00:56:05;;;;;;;7.82;2.85;;;12.50;99.90;;;;;;5025647;28;20555;-70
2023/06/08 00:58:33;;;;;;;10.57;3.28;;;12.60;99.90;;;;;;5024389;28;20712;-70
2023/06/08 01:00:59;;;;;;;4.97;3.28;;;12.60;99.90;;;;;;5025743;28;20061;-70
2023/06/08 01:03:33;;;;;;;7.45;3.60;;;12.50;99.90;;;;;;5023092;28;20056;-70
2023/06/08 01:06:08;;;;;;;14.25;3.85;;;12.50;99.90;;;;;;5025371;28;20488;-70
2023/06/08 01:08:52;;;;;;;5.78;2.80;;;12.50;99.90;;;;;;5025297;28;20506;-70
2023/06/08 01:11:48;;;;;;;5.28;2.58;;;12.60;99.90;;;;;;5023870;28;20096;-70
2023/06/08 01:14:31;;;;;;;6.13;2.45;;;12.50;99.90;;;;;;5025281;28;20045;-70
2023/06/08 01:17:02;;;;;;;6.75;2.35;;;12.50;99.90;;;;;;5019961;28;20541;-70
2023/06/08 01:19:47;;;;;;;6.00;3.25;;;12.50;99.90;;;;;;5015015;28;20056;-70
2023/06/08 01:22:28;;;;;;;5.40;3.13;;;12.50;99.90;;;;;;5023845;28;20049;-70
2023/06/08 01:24:59;;;;;;;6.20;2.42;;;12.50;99.90;;;;;;5025354;28;20041;-70
2023/06/08 01:27:29;;;;;;;5.80;2.55;;;12.50;99.90;;;;;;5025449;28;20123;-70
2023/06/08 01:29:54;;;;;;;6.53;2.53;;;12.50;99.90;;;;;;5025291;28;20509;-69
2023/06/08 01:32:20;;;;;;;3.65;2.03;;;12.50;99.90;;;;;;5024493;28;20084;-70
2023/06/08 01:34:46;;;;;;;7.22;2.90;;;12.40;99.90;;;;;;5025275;28;20397;-70
2023/06/08 01:37:12;;;;;;;7.35;2.83;;;12.40;99.90;;;;;;5024908;28;20490;-70
2023/06/08 01:39:50;;;;;;;6.53;2.70;;;12.40;99.90;;;;;;5025372;28;20083;-70
2023/06/08 01:42:18;;;;;;;6.05;2.80;;;12.50;99.90;;;;;;5023578;28;20076;-70
2023/06/08 01:45:04;;;;;;;7.40;2.92;;;12.50;99.90;;;;;;5025144;28;20038;-70
2023/06/08 01:47:40;;;;;;;7.80;3.42;;;12.50;99.90;;;;;;5023253;28;20445;-70
2023/06/08 01:50:07;;;;;;;5.88;2.78;;;12.40;99.90;;;;;;5024026;28;20056;-70
2023/06/08 01:52:33;;;;;;;4.57;2.28;;;12.50;99.90;;;;;;5023671;28;20037;-70
2023/06/08 01:54:59;;;;;;;3.53;2.53;;;12.40;99.90;;;;;;5025188;28;20045;-69
2023/06/08 01:57:25;;;;;;;4.38;2.80;;;12.50;99.90;;;;;;5024920;28;20453;-70
2023/06/08 01:59:50;;;;;;;6.57;2.58;;;12.50;99.90;;;;;;5027361;28;20638;-69
2023/06/08 02:02:16;;;;;;;8.75;2.47;;;12.50;99.90;;;;;;5027692;28;20038;-70
2023/06/08 02:04:42;;;;;;;6.35;3.17;;;12.50;99.90;;;;;;5028627;28;20059;-70
2023/06/08 02:07:08;;;;;;;6.05;2.70;;;12.50;99.90;;;;;;5029014;28;20060;-70
2023/06/08 02:09:33;;;;;;;5.35;2.53;;;12.50;99.90;;;;;;5027341;28;20489;-70
2023/06/08 02:12:06;;;;;;;5.35;2.35;;;12.50;99.90;;;;;;5027261;28;20050;-70
2023/06/08 02:14:32;;;;;;;8.38;2.45;;;12.50;99.90;;;;;;5027850;28;20072;-70
2023/06/08 02:17:00;;;;;;;9.65;2.28;;;12.50;99.90;;;;;;5027858;28;20620;-70
2023/06/08 02:19:26;;;;;;;6.75;2.67;;;12.40;99.90;;;;;;5026863;28;20508;-70
2023/06/08 02:21:52;;;;;;;3.88;2.33;;;12.40;99.90;;;;;;5028389;28;20056;-70
2023/06/08 02:24:18;;;;;;;4.55;2.78;;;12.40;99.90;;;;;;5028420;28;20502;-70
2023/06/08 02:26:43;;;;;;;3.90;2.28;;;12.40;99.90;;;;;;5028522;28;20584;-70
2023/06/08 02:29:09;;;;;;;9.98;3.40;;;12.40;99.90;;;;;;5027561;28;20124;-70
2023/06/08 02:31:35;;;;;;;6.82;2.85;;;12.40;99.90;;;;;;5027255;28;20132;-70
2023/06/08 02:34:01;;;;;;;7.38;2.30;;;12.40;99.90;;;;;;5028265;28;20110;-70
2023/06/08 02:36:31;;;;;;;4.90;2.90;;;12.40;99.90;;;;;;5028100;28;20048;-70
2023/06/08 02:38:58;;;;;;;6.13;2.10;;;12.40;99.90;;;;;;5027627;28;20067;-70
2023/06/08 02:41:23;;;;;;;6.35;3.00;;;12.40;99.90;;;;;;5027971;28;20088;-70
2023/06/08 02:43:49;;;;;;;7.40;2.58;;;12.40;99.90;;;;;;5028224;28;20073;-70
2023/06/08 02:46:15;;;;;;;5.70;2.35;;;12.40;99.90;;;;;;5027828;28;20537;-70
2023/06/08 02:48:40;;;;;;;3.70;2.58;;;12.40;99.90;;;;;;5027594;28;20046;-70
2023/06/08 02:51:06;;;;;;;5.70;2.40;;;12.40;99.90;;;;;;5028008;28;20087;-70
2023/06/08 02:53:32;;;;;;;4.93;2.38;;;12.40;99.90;;;;;;5026375;28;20085;-70
2023/06/08 02:55:58;;;;;;;8.10;2.42;;;12.40;99.90;;;;;;5027226;28;20393;-70
2023/06/08 02:58:24;;;;;;;7.68;2.47;;;12.30;99.90;;;;;;5027683;28;20041;-70
2023/06/08 03:00:53;;;;;;;4.82;3.25;;;12.30;99.90;;;;;;5027874;28;20038;-70
2023/06/08 03:03:23;;;;;;;4.45;3.08;;;12.40;99.90;;;;;;5026561;28;20060;-70
2023/06/08 03:05:50;;;;;;;7.32;2.90;;;12.40;99.90;;;;;;5026476;28;20056;-70
2023/06/08 03:08:16;;;;;;;5.13;2.55;;;12.40;99.90;;;;;;5026964;28;20719;-70
2023/06/08 03:10:42;;;;;;;9.07;2.92;;;12.30;99.90;;;;;;5026388;28;20049;-70
2023/06/08 03:13:08;;;;;;;9.50;2.88;;;12.30;99.90;;;;;;5027914;28;20607;-70
2023/06/08 03:15:33;;;;;;;5.45;3.08;;;12.30;99.90;;;;;;5025788;28;20071;-70
2023/06/08 03:17:59;;;;;;;6.38;3.67;;;12.30;99.90;;;;;;5024953;28;20053;-70
2023/06/08 03:20:25;;;;;;;8.52;2.92;;;12.30;99.90;;;;;;5027009;28;20048;-70
2023/06/08 03:22:51;;;;;;;9.15;2.35;;;12.30;99.90;;;;;;5027505;28;20045;-70
2023/06/08 03:25:16;;;;;;;10.45;3.47;;;12.30;99.90;;;;;;5026987;28;20421;-70
2023/06/08 03:27:44;;;;;;;7.40;2.63;;;12.40;99.90;;;;;;5027098;28;20041;-70
2023/06/08 03:30:11;;;;;;;8.80;2.90;;;12.30;99.90;;;;;;5027631;28;20056;-69
2023/06/08 03:32:37;;;;;;;5.60;3.22;;;12.30;99.90;;;;;;5025320;28;20448;-69
2023/06/08 03:35:03;;;;;;;6.45;2.95;;;12.30;99.90;;;;;;5026533;28;20045;-70
2023/06/08 03:37:29;;;;;;;7.22;3.10;;;12.40;99.90;;;;;;5026825;28;20401;-70
2023/06/08 03:39:55;;;;;;;5.25;2.47;;;12.40;99.90;;;;;;5026722;28;20042;-69
2023/06/08 03:42:20;;;;;;;5.63;2.88;;;12.40;99.90;;;;;;5025553;28;20049;-70
2023/06/08 03:44:46;;;;;;;8.15;3.35;;;12.40;99.90;;;;;;5027176;28;20044;-70
2023/06/08 03:47:12;;;;;;;8.15;3.35;;;12.40;99.90;;;;;;5025950;28;20045;-70
2023/06/08 03:49:37;;;;;;;6.63;3.10;;;12.40;99.90;;;;;;5027036;28;20676;-70
2023/06/08 03:52:04;;;;;;;11.43;3.33;;;12.40;99.90;;;;;;5026613;28;20049;-69
2023/06/08 03:54:30;;;;;;;6.85;3.65;;;12.40;99.90;;;;;;5025036;28;20060;-70
2023/06/08 03:56:56;;;;;;;9.75;3.25;;;12.40;99.90;;;;;;5026425;28;20045;-70
2023/06/08 03:59:22;;;;;;;6.47;3.33;;;12.40;99.90;;;;;;5026165;28;20501;-70
2023/06/08 04:01:47;;;;;;;7.00;3.70;;;12.50;99.90;;;;;;5025622;28;20509;-69
2023/06/08 04:04:13;;;;;;;4.80;3.28;;;12.50;99.90;;;;;;5024754;28;20131;-70
2023/06/08 04:06:40;;;;;;;9.02;3.03;;;12.50;99.90;;;;;;5026746;28;20102;-70
2023/06/08 04:09:06;;;;;;;7.03;3.10;;;12.50;99.90;;;;;;5026089;28;20075;-69
2023/06/08 04:11:32;;;;;;;4.80;2.95;;;12.50;99.90;;;;;;5025761;28;20061;-70
2023/06/08 04:13:57;;;;;;;3.83;2.58;;;12.50;99.90;;;;;;5024997;28;20049;-70
2023/06/08 04:16:23;;;;;;;4.47;3.00;;;12.50;99.90;;;;;;5024891;28;20493;-69
2023/06/08 04:18:49;;;;;;;4.00;2.45;;;12.50;99.90;;;;;;5026419;28;20050;-70
2023/06/08 04:21:15;;;;;;;7.28;2.78;;;12.50;99.90;;;;;;5026030;28;20037;-70
2023/06/08 04:23:41;;;;;;;11.27;2.50;;;12.60;99.90;;;;;;5026268;28;20046;-70
2023/06/08 04:26:07;;;;;;;10.30;3.28;;;12.50;99.90;;;;;;5026288;28;20037;-70
2023/06/08 04:28:33;;;;;;;7.70;2.88;;;12.60;99.90;;;;;;5025780;28;20064;-70
2023/06/08 04:30:59;;;;;;;5.43;2.85;;;12.60;99.90;;;;;;5041511;28;20053;-69
2023/06/08 04:33:26;;;;;;;6.53;2.50;;;12.60;99.90;;;;;;5024634;28;20399;-70
2023/06/08 04:35:51;;;;;;;4.78;2.55;;;12.60;99.90;;;;;;5025928;28;20529;-70
2023/06/08 04:38:17;;;;;;;8.13;3.80;;;12.60;99.90;;;;;;5025622;28;20045;-70
2023/06/08 04:40:52;;;;;;;6.65;2.28;;;12.60;99.90;;;;;;5025445;28;20077;-70
2023/06/08 04:43:18;;;;;;;5.45;1.70;;;12.70;99.90;;;;;;5025806;28;20041;-70
2023/06/08 04:45:44;;;;;;;5.32;2.83;;;12.60;99.90;;;;;;5025918;28;20409;-70
2023/06/08 04:48:10;;;;;;;6.45;2.83;;;12.60;99.90;;;;;;5025120;28;20576;-70
2023/06/08 04:50:37;;;;;;;3.33;2.08;;;12.70;99.90;;;;;;5024408;28;20072;-70
2023/06/08 04:53:04;;;;;;;4.40;2.50;;;12.70;99.90;;;;;;5025713;28;20565;-69
2023/06/08 04:55:30;;;;;;;6.32;2.38;;;12.70;99.90;;;;;;5024724;28;20428;-70
2023/06/08 04:57:56;;;;;;;7.55;2.47;;;12.80;99.90;;;;;;5025854;28;20095;-70
2023/06/08 05:00:22;;;;;;;3.78;1.63;;;12.80;99.90;;;;;;5024374;28;20544;-70
2023/06/08 05:02:47;;;;;;;6.30;2.03;;;12.80;99.90;;;;;;5020223;28;20044;-70
2023/06/08 05:05:13;;;;;;;6.50;3.17;;;12.80;99.90;;;;;;5005559;28;20049;-70
2023/06/08 05:07:38;;;;;;;3.33;2.08;;;12.90;99.90;;;;;;5014469;28;20567;-70
2023/06/08 05:10:05;;;;;;;7.38;2.33;;;12.80;99.90;;;;;;5026743;28;20055;-71
2023/06/08 05:12:30;;;;;;;4.47;2.88;;;12.90;99.90;;;;;;5024513;28;20057;-71
2023/06/08 05:14:56;;;;;;;6.13;2.75;;;12.90;99.90;;;;;;5025468;28;20114;-71
2023/06/08 05:17:22;;;;;;;7.65;2.58;;;12.90;99.90;;;;;;5024303;28;20038;-71
2023/06/08 05:19:50;;;;;;;4.80;2.15;;;12.90;99.90;;;;;;5025263;28;20049;-70
2023/06/08 05:22:15;;;;;;;7.00;2.33;;;13.00;99.90;;;;;;5024867;28;20045;-71
2023/06/08 05:24:41;;;;;;;6.25;2.25;;;13.00;99.90;;;;;;5026078;28;20037;-71
2023/06/08 05:27:07;;;;;;;7.95;2.25;;;13.10;99.90;;;;;;5024159;28;20036;-70
2023/06/08 05:29:32;;;;;;;3.03;1.92;;;13.10;99.90;;;;;;5024523;28;20081;-70
2023/06/08 05:31:58;;;;;;;4.72;2.15;;;13.10;99.90;;;;;;5023549;28;20025;-71
2023/06/08 05:34:23;;;;;;;3.90;1.90;;;13.10;99.90;;;;;;5025309;28;20096;-70
2023/06/08 05:36:49;;;;;;;5.28;3.22;;;13.20;99.90;;;;;;5026970;28;20048;-70
2023/06/08 05:39:15;;;;;;;6.57;2.20;;;13.20;99.90;;;;;;5028963;28;20067;-70
2023/06/08 05:41:40;;;;;;;4.47;2.40;;;13.20;99.90;;;;;;5028962;28;20049;-70
2023/06/08 05:44:06;;;;;;;8.90;2.72;;;13.20;99.90;;;;;;5028343;28;20041;-70
2023/06/08 05:46:31;;;;;;;3.40;2.22;;;13.30;99.90;;;;;;5027621;28;20509;-70
2023/06/08 05:48:57;;;;;;;4.00;2.60;;;13.30;99.90;;;;;;5029074;28;20041;-75
2023/06/08 05:51:22;;;;;;;8.20;1.92;;;13.30;99.90;;;;;;5026744;28;20040;-69
2023/06/08 05:53:48;;;;;;;5.57;2.58;;;13.40;99.90;;;;;;5028014;28;20593;-69
2023/06/08 05:56:14;;;;;;;4.90;2.38;;;13.40;99.90;;;;;;5027711;28;20045;-70
2023/06/08 05:58:39;;;;;;;4.13;1.95;;;13.40;99.90;;;;;;5028961;28;20102;-69
2023/06/08 06:01:06;;;;;;;7.57;2.30;;;13.40;99.90;;;;;;5025120;28;20044;-69
2023/06/08 06:03:32;;;;;;;7.97;2.22;;;13.40;99.90;;;;;;5028553;28;20071;-69
2023/06/08 06:05:58;;;;;;;7.13;2.20;;;13.40;99.90;;;;;;5026873;28;20038;-70
2023/06/08 06:08:24;;;;;;;3.92;1.90;;;13.50;99.90;;;;;;5041519;28;20040;-69
2023/06/08 06:10:49;;;;;;;4.53;1.98;;;13.50;99.90;;;;;;5028315;28;20095;-70
2023/06/08 06:13:15;;;;;;;4.85;2.85;;;13.50;99.90;;;;;;5027945;28;20073;-70
2023/06/08 06:15:41;;;;;;;3.60;2.22;;;13.50;99.90;;;;;;5025543;28;20057;-70
2023/06/08 06:18:06;;;;;;;6.00;2.67;;;13.50;99.90;;;;;;5024223;28;20049;-70
2023/06/08 06:20:32;;;;;;;4.78;2.30;;;13.60;99.90;;;;;;5025634;28;20057;-70
2023/06/08 06:22:58;;;;;;;4.50;2.30;;;13.60;99.90;;;;;;5028675;28;20095;-70
2023/06/08 06:25:24;;;;;;;5.07;2.33;;;13.60;99.90;;;;;;5027848;28;20065;-70
2023/06/08 06:27:50;;;;;;;9.07;2.30;;;13.60;99.90;;;;;;5027809;28;20401;-70
2023/06/08 06:30:15;;;;;;;6.10;2.50;;;13.60;99.90;;;;;;5028314;28;20046;-71
2023/06/08 06:32:41;;;;;;;6.00;2.55;;;13.60;99.90;;;;;;5027566;28;20047;-69
2023/06/08 06:35:07;;;;;;;3.20;1.52;;;13.60;99.90;;;;;;5026302;28;20081;-69
2023/06/08 06:37:34;;;;;;;7.50;2.55;;;13.70;99.90;;;;;;5025736;28;20041;-69
2023/06/08 06:40:04;;;;;;;3.33;2.10;;;13.80;99.90;;;;;;5010349;28;20106;-69
2023/06/08 06:42:30;;;;;;;5.55;2.65;;;13.80;99.90;;;;;;5026822;28;20365;-69
2023/06/08 06:44:56;;;;;;;5.97;2.17;;;13.80;99.90;;;;;;5025627;28;20091;-69
2023/06/08 06:47:22;;;;;;;5.90;2.70;;;13.80;99.90;;;;;;5024773;28;20045;-69
2023/06/08 06:49:47;;;;;;;5.57;2.13;;;13.90;99.90;;;;;;5025909;28;20037;-69
2023/06/08 06:52:13;;;;;;;4.38;2.10;;;13.90;99.90;;;;;;5025094;28;20045;-71
2023/06/08 06:54:39;;;;;;;5.60;2.22;;;13.90;99.90;;;;;;5027552;28;20081;-69
2023/06/08 06:57:04;;;;;;;7.05;2.33;;;14.00;99.90;;;;;;5029018;28;20087;-69
2023/06/08 06:59:30;;;;;;;7.40;2.40;;;14.00;99.90;;;;;;5027163;28;20052;-70
2023/06/08 07:01:56;;;;;;;3.72;2.17;;;14.10;99.90;;;;;;5026565;28;20489;-70
2023/06/08 07:04:22;;;;;;;2.55;1.92;;;14.10;99.90;;;;;;5026093;28;20467;-70
2023/06/08 07:06:49;;;;;;;7.30;2.58;;;14.10;99.90;;;;;;5026872;28;20508;-72
2023/06/08 07:09:16;;;;;;;6.60;1.92;;;14.20;99.90;;;;;;5028191;28;20052;-72
2023/06/08 07:11:42;;;;;;;6.93;2.50;;;14.20;99.90;;;;;;5032667;28;20095;-73
2023/06/08 07:14:07;;;;;;;4.90;2.20;;;14.20;99.90;;;;;;5026035;28;20041;-72
2023/06/08 07:16:33;;;;;;;5.95;2.53;;;14.30;99.90;;;;;;5023214;28;20041;-71
2023/06/08 07:18:59;;;;;;;5.80;2.63;;;14.40;99.90;;;;;;5024515;28;20249;-72
2023/06/08 07:21:25;;;;;;;8.45;2.33;;;14.40;99.90;;;;;;5026320;28;20037;-72
2023/06/08 07:23:50;;;;;;;7.55;2.22;;;14.40;99.90;;;;;;5025219;28;20060;-69
2023/06/08 07:26:16;;;;;;;6.32;2.05;;;14.40;99.90;;;;;;5025936;28;20650;-69
2023/06/08 07:28:42;;;;;;;5.13;3.08;;;14.50;99.90;;;;;;5026068;28;20073;-71
2023/06/08 07:31:08;;;;;;;8.07;2.00;;;14.50;99.90;;;;;;5024453;28;20045;-69
2023/06/08 07:33:33;;;;;;;2.97;1.80;;;14.50;99.90;;;;;;5025795;28;20064;-69
2023/06/08 07:35:59;;;;;;;5.05;2.92;;;14.60;99.90;;;;;;5026387;28;20049;-70
2023/06/08 07:38:25;;;;;;;4.57;2.42;;;14.60;99.90;;;;;;5024561;28;20040;-69
2023/06/08 07:40:50;;;;;;;3.92;2.20;;;14.70;99.90;;;;;;5025917;28;20057;-69
2023/06/08 07:43:16;;;;;;;6.60;1.85;;;14.70;99.90;;;;;;5024767;28;20045;-72
2023/06/08 07:45:42;;;;;;;8.77;2.25;;;14.70;99.90;;;;;;5007395;28;20041;-73
2023/06/08 07:48:07;;;;;;;7.65;2.22;;;14.70;99.90;;;;;;5026165;28;20080;-72
2023/06/08 07:50:33;;;;;;;5.50;2.20;;;14.80;99.90;;;;;;5025002;28;20390;-72
2023/06/08 07:52:59;;;;;;;9.23;2.92;;;14.80;99.90;;;;;;5025746;28;20047;-72
2023/06/08 07:55:24;;;;;;;3.47;2.00;;;14.80;99.90;;;;;;5025694;28;20129;-71
2023/06/08 07:57:50;;;;;;;3.47;2.33;;;14.90;99.90;;;;;;5025096;28;20638;-71
2023/06/08 08:00:17;;;;;;;4.15;1.58;;;14.90;99.90;;;;;;5024163;28;20190;-72
2023/06/08 08:02:43;;;;;;;3.67;2.05;;;15.00;99.90;;;;;;5022929;28;20593;-73
2023/06/08 08:05:09;;;;;;;3.42;2.50;;;15.00;99.90;;;;;;5026019;28;20107;-72
2023/06/08 08:07:36;;;;;;;5.78;2.35;;;15.00;99.90;;;;;;5025396;28;20433;-71
2023/06/08 08:10:03;;;;;;;6.55;1.77;;;15.00;99.90;;;;;;5025188;28;20473;-72
2023/06/08 08:12:28;;;;;;;4.57;2.40;;;15.00;99.90;;;;;;5007249;28;20326;-72
2023/06/08 08:14:54;;;;;;;4.72;2.03;;;15.10;99.90;;;;;;5025025;28;20050;-72
2023/06/08 08:17:19;;;;;;;7.20;2.38;;;15.10;99.90;;;;;;5023789;28;20041;-72
2023/06/08 08:19:45;;;;;;;5.47;2.25;;;15.20;99.90;;;;;;5025471;28;20119;-70
2023/06/08 08:22:10;;;;;;;5.43;2.15;;;15.20;99.90;;;;;;5024377;28;20074;-69
2023/06/08 08:24:36;;;;;;;4.18;1.73;;;15.30;99.90;;;;;;5024873;28;20083;-69
2023/06/08 08:27:02;;;;;;;6.80;2.53;;;15.30;99.90;;;;;;5025270;28;20052;-70
2023/06/08 08:29:27;;;;;;;6.97;2.53;;;15.30;99.90;;;;;;5023753;28;20041;-69
2023/06/08 08:31:53;;;;;;;7.25;2.10;;;15.30;99.90;;;;;;5023867;28;20046;-69
2023/06/08 08:34:19;;;;;;;5.32;2.00;;;15.40;99.90;;;;;;5024751;28;20382;-69
2023/06/08 08:36:44;;;;;;;5.95;2.30;;;15.40;99.90;;;;;;5025028;28;20075;-69
2023/06/08 08:39:11;;;;;;;6.57;2.20;;;15.50;99.90;;;;;;5024903;28;20029;-69
2023/06/08 08:41:40;;;;;;;7.32;2.53;;;15.50;99.90;;;;;;5023769;28;20081;-69
2023/06/08 08:44:09;;;;;;;3.88;1.75;;;15.60;99.90;;;;;;5024675;28;20049;-70
2023/06/08 08:46:39;;;;;;;4.55;2.50;;;15.60;99.90;;;;;;5023988;28;20132;-69
2023/06/08 08:49:15;;;;;;;6.72;2.42;;;15.60;99.90;;;;;;5023731;28;20053;-69
2023/06/08 08:51:43;;;;;;;6.15;1.77;;;15.50;99.90;;;;;;5025287;28;20074;-69
2023/06/08 08:54:12;;;;;;;6.45;1.52;;;15.50;99.90;;;;;;5023944;28;20524;-69
2023/06/08 08:56:38;;;;;;;6.82;2.63;;;15.60;99.90;;;;;;5023546;28;20045;-70
2023/06/08 08:59:05;;;;;;;3.97;2.03;;;15.60;99.90;;;;;;5024981;28;20053;-69
2023/06/08 09:01:32;;;;;;;2.83;1.73;;;15.70;99.90;;;;;;5023259;28;20079;-69
2023/06/08 09:03:59;;;;;;;2.67;1.88;;;15.70;99.90;;;;;;5023208;28;20045;-69
2023/06/08 09:06:25;;;;;;;2.92;2.08;;;15.70;99.90;;;;;;5006754;28;20038;-70
2023/06/08 09:08:51;;;;;;;5.93;2.30;;;15.70;99.90;;;;;;5023843;28;20042;-69
2023/06/08 09:11:17;;;;;;;4.07;1.67;;;15.70;99.90;;;;;;5024012;28;20045;-69
2023/06/08 09:13:43;;;;;;;2.95;1.80;;;15.70;99.90;;;;;;5023294;28;20056;-70
2023/06/08 09:16:17;;;;;;;4.07;2.35;;;15.80;99.90;;;;;;5024272;28;20052;-69
2023/06/08 09:19:04;;;;;;;4.70;1.60;;;15.80;99.90;;;;;;5023218;28;20049;-69
2023/06/08 09:21:30;;;;;;;5.60;2.42;;;15.80;99.90;;;;;;5024248;28;20045;-69
2023/06/08 09:24:03;;;;;;;5.35;2.20;;;15.90;99.90;;;;;;5024346;28;20050;-69
2023/06/08 09:26:33;;;;;;;4.78;1.58;;;15.90;99.90;;;;;;5024446;28;20052;-69
2023/06/08 09:29:01;;;;;;;5.80;1.77;;;15.90;99.90;;;;;;5023375;28;20080;-69
2023/06/08 09:31:30;;;;;;;4.35;1.63;;;15.90;99.90;;;;;;5023285;28;20042;-69
2023/06/08 09:34:07;;;;;;;3.90;2.00;;;16.00;99.90;;;;;;5024036;28;20033;-70
2023/06/08 09:36:36;;;;;;;4.43;1.75;;;16.00;99.90;;;;;;5024233;28;20052;-69
2023/06/08 09:39:03;;;;;;;7.05;2.08;;;16.10;99.90;;;;;;5024166;28;20435;-69
2023/06/08 09:41:29;;;;;;;4.00;2.25;;;16.10;99.90;;;;;;5023998;28;20046;-69
2023/06/08 09:43:55;;;;;;;6.30;2.20;;;16.20;99.90;;;;;;5024408;28;20059;-70
2023/06/08 09:46:34;;;;;;;5.45;2.00;;;16.20;99.90;;;;;;5023134;28;20541;-69
2023/06/08 09:49:02;;;;;;;2.15;1.67;;;16.20;99.90;;;;;;5024224;28;20056;-69
2023/06/08 09:51:27;;;;;;;7.38;1.83;;;16.20;99.90;;;;;;5023000;28;20053;-69
2023/06/08 09:53:58;;;;;;;4.60;1.83;;;16.20;99.90;;;;;;5006533;28;20041;-70
2023/06/08 09:56:27;;;;;;;3.13;1.75;;;16.20;99.90;;;;;;5024055;28;20077;-72
2023/06/08 09:58:58;;;;;;;7.00;1.60;;;16.20;99.90;;;;;;5024164;28;20040;-72
2023/06/08 10:01:42;;;;;;;3.05;1.67;;;16.20;99.90;;;;;;5005056;28;20041;-72
2023/06/08 10:04:20;;;;;;;5.75;1.35;;;16.20;99.90;;;;;;5024587;28;20053;-72
2023/06/08 10:06:47;;;;;;;5.03;2.13;;;16.20;99.90;;;;;;5024340;28;20088;-72
2023/06/08 10:09:16;;;;;;;2.67;1.52;;;16.20;99.90;;;;;;5022677;28;20523;-73
2023/06/08 10:11:42;;;;;;;3.97;1.70;;;16.20;99.90;;;;;;5023793;28;20504;-73
2023/06/08 10:14:08;;;;;;;5.25;2.10;;;16.30;99.90;;;;;;5024506;28;20120;-72
2023/06/08 10:16:35;;;;;;;7.85;1.95;;;16.30;99.90;;;;;;5022645;28;20049;-72
2023/06/08 10:19:02;;;;;;;3.78;2.05;;;16.40;99.90;;;;;;5024050;28;20409;-72
2023/06/08 10:21:29;;;;;;;2.40;1.85;;;16.40;99.90;;;;;;5025458;28;20523;-72
2023/06/08 10:23:56;;;;;;;7.13;2.47;;;16.50;99.90;;;;;;5027701;28;20033;-72
2023/06/08 10:26:23;;;;;;;8.95;1.80;;;16.50;99.90;;;;;;5027118;28;20084;-72
2023/06/08 10:29:06;;;;;;;5.90;2.22;;;16.50;99.90;;;;;;5027520;28;20033;-71
2023/06/08 10:31:38;;;;;;;5.30;1.73;;;16.50;99.90;;;;;;5026274;28;20088;-72
2023/06/08 10:34:08;;;;;;;3.42;2.67;;;16.60;99.90;;;;;;5027580;28;20381;-72
2023/06/08 10:36:36;;;;;;;4.95;2.05;;;16.60;99.90;;;;;;5027120;28;20041;-72
2023/06/08 10:39:16;;;;;;;5.65;2.20;;;16.60;99.90;;;;;;5027275;28;20253;-72
2023/06/08 10:41:53;;;;;;;5.82;2.47;;;16.60;99.90;;;;;;5027201;28;20397;-73
2023/06/08 10:44:33;;;;;;;4.80;2.85;;;16.50;99.90;;;;;;5026291;28;20049;-71
2023/06/08 10:47:01;;;;;;;5.00;2.75;;;16.60;99.90;;;;;;5025956;28;20052;-73
2023/06/08 10:49:34;;;;;;;7.90;3.05;;;16.60;99.90;;;;;;5028384;28;20382;-73
2023/06/08 10:52:03;;;;;;;4.90;2.95;;;16.70;99.90;;;;;;5027343;28;20108;-72
2023/06/08 10:54:28;;;;;;;6.45;2.53;;;16.70;99.90;;;;;;5027177;28;20077;-72
2023/06/08 10:56:56;;;;;;;7.30;2.22;;;16.70;99.90;;;;;;5027464;28;20115;-72
2023/06/08 10:59:42;;;;;;;6.20;2.13;;;16.70;99.90;;;;;;5025823;28;20481;-73
2023/06/08 11:02:08;;;;;;;5.18;2.47;;;16.70;99.90;;;;;;5026409;28;20124;-72
2023/06/08 11:04:34;;;;;;;8.68;2.17;;;16.70;99.90;;;;;;5023364;28;20137;-73
2023/06/08 11:07:00;;;;;;;6.00;2.10;;;16.70;99.90;;;;;;5026738;28;20033;-72
2023/06/08 11:09:31;;;;;;;5.50;1.95;;;16.80;99.90;;;;;;5025492;28;20056;-72
2023/06/08 11:12:00;;;;;;;6.10;2.50;;;16.80;99.90;;;;;;5026484;28;20057;-73
2023/06/08 11:14:26;;;;;;;5.45;2.33;;;16.80;99.90;;;;;;5015801;28;20041;-73
2023/06/08 11:16:54;;;;;;;2.42;1.35;;;16.80;99.90;;;;;;5026286;28;20405;-73
2023/06/08 11:19:21;;;;;;;3.78;1.45;;;16.80;99.90;;;;;;5026309;28;20072;-73
2023/06/08 11:21:53;;;;;;;3.80;1.45;;;16.80;99.90;;;;;;5026344;28;20131;-73
2023/06/08 11:24:20;;;;;;;;;;;16.80;99.90;;;;;;5042908;28;20396;-73
2023/06/08 11:26:46;;;;;;;5.32;1.70;;;16.80;99.90;;;;;;5062690;28;19921;-73
2023/06/08 11:29:13;;;;;;;3.60;2.00;;;16.80;99.90;;;;;;5046587;28;20120;-73
2023/06/08 11:31:42;;;;;;;3.67;2.05;;;16.80;99.90;;;;;;5028856;28;20482;-73
2023/06/08 11:34:11;;;;;;;4.57;1.60;;;16.90;99.90;;;;;;5008819;28;20486;-73
2023/06/08 11:36:38;;;;;;;2.00;1.52;;;16.90;99.90;;;;;;5025720;28;20049;-73
2023/06/08 11:39:05;;;;;;;2.63;1.63;;;16.90;99.90;;;;;;5025479;28;20103;-73
2023/06/08 11:41:31;;;;;;;3.03;1.67;;;16.90;99.90;;;;;;5026060;28;21084;-73
2023/06/08 11:43:57;;;;;;;4.60;1.70;;;16.90;99.90;;;;;;5026274;28;20077;-73
2023/06/08 11:46:23;;;;;;;3.28;1.63;;;17.00;99.90;;;;;;5025563;28;20049;-73
2023/06/08 11:48:49;;;;;;;3.75;1.83;;;17.10;99.90;;;;;;5026596;28;20041;-73
2023/06/08 11:51:18;;;;;;;3.03;1.67;;;17.10;99.90;;;;;;5025941;28;20037;-73
2023/06/08 11:53:47;;;;;;;3.38;2.05;;;17.10;99.90;;;;;;5024725;28;20524;-73
2023/06/08 11:56:13;;;;;;;2.78;1.63;;;17.10;99.90;;;;;;5024818;28;20508;-73
2023/06/08 11:58:40;;;;;;;7.60;1.77;;;17.00;99.90;;;;;;5026732;28;20042;-73
2023/06/08 12:01:07;;;;;;;2.33;1.83;;;17.00;99.90;;;;;;5024856;28;20111;-73
2023/06/08 12:03:41;;;;;;;4.57;2.25;;;17.10;99.90;;;;;;5025563;28;20481;-73
2023/06/08 12:06:07;;;;;;;4.32;1.60;;;17.10;99.90;;;;;;5006755;28;20061;-73
2023/06/08 12:08:33;;;;;;;3.25;1.77;;;17.10;99.90;;;;;;5006024;28;20117;-73
2023/06/08 12:11:10;;;;;;;6.32;1.52;;;17.10;99.90;;;;;;5006489;28;20429;-73
2023/06/08 12:13:39;;;;;;;3.35;1.55;;;17.20;99.90;;;;;;5020006;28;20045;-73
2023/06/08 12:16:10;;;;;;;1.55;1.13;;;17.20;99.90;;;;;;5025037;28;20175;-73
2023/06/08 12:18:39;;;;;;;5.53;2.00;;;17.20;99.90;;;;;;5007921;28;20516;-73
2023/06/08 12:21:07;;;;;;;4.95;1.45;;;17.20;99.90;;;;;;5023823;28;20068;-73
2023/06/08 12:23:33;;;;;;;3.65;1.33;;;17.20;99.90;;;;;;5025759;28;20041;-73
2023/06/08 12:25:59;;;;;;;2.47;1.42;;;17.20;99.90;;;;;;5025719;28;20048;-72
2023/06/08 12:28:25;;;;;;;2.15;1.35;;;17.20;99.90;;;;;;5024655;28;20052;-73
2023/06/08 12:30:52;;;;;;;4.55;1.30;;;17.20;99.90;;;;;;5023663;28;20409;-72
2023/06/08 12:33:19;;;;;;;2.50;0.90;;;17.20;99.90;;;;;;5023738;28;20069;-72
2023/06/08 12:35:49;;;;;;;5.72;1.50;;;17.20;99.90;;;;;;5024028;28;20386;-73
2023/06/08 12:38:16;;;;;;;2.88;0.80;;;17.20;99.90;;;;;;5025249;28;20052;-73
2023/06/08 12:40:47;;;;;;;1.45;0.88;;;17.20;99.90;;;;;;5025671;28;20037;-74
2023/06/08 12:43:16;;;;;;;1.40;1.20;;;17.30;99.90;;;;;;5025509;28;20509;-73
2023/06/08 12:45:42;;;;;;;5.63;1.98;;;17.30;99.90;;;;;;5023494;28;20092;-73
2023/06/08 12:48:08;;;;;;;4.78;1.30;;;17.30;99.90;;;;;;5025867;28;20161;-72
2023/06/08 12:50:34;;;;;;;3.30;1.75;;;17.30;99.90;;;;;;5022845;28;20033;-72